LEVCLEZG

Guest
Details From LEVC - Valencia
To LEZG - Zaragoza Ab
Flight Number -
Tags Generated
Created
Modified
Stats Distance 133 nm / 246 km
Max Altitude 0 ft / 0 m
Waypoints 2
Social Downloads 0
Likes 0
Share VATSIM

Download

Looking for another format? Having issues loading an existing format? Contact us
Advertisement - Login to hide

Notes

Generated

Route

LEVC LEZG

ID Type Via Altitude Latitude Longitude Leg Dist Tot Dist Heading (true) Name
O LEVC APT - 0 ft / 0 m 39.49655˚ -0.50070˚ - 0 nm - -
O LEZG APT - 0 ft / 0 m 41.66906˚ -1.03983˚ 132 nm 132 nm 350° / 349° Zaragoza AB

Altitude Profile

Advertisement - Login to hide

LEVC

Details ICAO LEVC (VLC)
Name Valencia
Region Spain
Timezone Europe/Madrid (UTC+2.0)
Stats Elevation 225 ft / 69 m (AMSL)
Location 39.488236° -0.483892°
Runways 2
Magnetic Variation 0.241° E

METAR

LEVC 231900Z 05009KT 9999 FEW030 21/15 Q1016 NOSIG

Decode

TAF

TAF TAF LEVC 231700Z 2318/2418 07007KT 9999 FEW020 TX24/2413Z TN16/2406Z BECMG 2320/2322 VRB03KT PROB30 TEMPO 2400/2406 BKN012 PROB30 TEMPO 2406/2410 SHRA FEW040CB BKN050 BECMG 2410/2412 07010KT

Decode

Departure Runways

ID Width Length Bearing (true) Bearing (mag) Surface Threshold Offset Overrun Length
12 148 ft / 45 m 10,555 ft / 3,217 m 116.25° 116.01° Asphalt 0 ft / 0 m 646 ft / 197 m
22 154 ft / 47 m 3,828 ft / 1,167 m 217.99° 217.75° Asphalt 0 ft / 0 m 0 ft / 0 m
30 148 ft / 45 m 10,555 ft / 3,217 m 296.27° 296.03° Asphalt 1,001 ft / 305 m 932 ft / 284 m
4 154 ft / 47 m 3,828 ft / 1,167 m 37.98° 37.74° Asphalt 0 ft / 0 m 0 ft / 0 m

LEZG

Details ICAO LEZG (ZAZ)
Name Zaragoza AB
Region Spain
Timezone Europe/Madrid (UTC+2.0)
Stats Elevation 862 ft / 263 m (AMSL)
Location 41.667030° -1.043559°
Runways 2
Magnetic Variation 0.041° E

METAR

LEZG 231900Z 21005KT 160V260 9999 FEW030CB SCT085 19/16 Q1017

Decode

TAF

TAF LEZG 231700Z 2318/2418 VRB05KT 9999 BKN060 TX30/2414Z TN15/2406Z PROB40 TEMPO 2318/2324 32015KT 5000 TSRA SCT040CB BECMG 2400/2402 11008KT PROB30 TEMPO 2413/2418 TSRA SCT040CB BKN050

Decode

Destination Runways

ID Width Length Bearing (true) Bearing (mag) Surface Threshold Offset Overrun Length
12L 148 ft / 45 m 9,934 ft / 3,028 m 120.12° 120.08° Asphalt 0 ft / 0 m 984 ft / 300 m
12R 148 ft / 45 m 12,181 ft / 3,713 m 120.10° 120.06° Asphalt 0 ft / 0 m 984 ft / 300 m
30L 148 ft / 45 m 12,181 ft / 3,713 m 300.12° 300.08° Asphalt 0 ft / 0 m 984 ft / 300 m
30R 148 ft / 45 m 9,934 ft / 3,028 m 300.14° 300.10° Asphalt 0 ft / 0 m 607 ft / 185 m

Approach Navaids

Runway Type Ident Frequency Range Bearing (true) Bearing (mag) Slope Elevation
30R Localiser IZZA 109.50 MHz 18 nm / 33 km 300.12° 300.07° - 862 ft / 263 m (AMSL)
30R Glidescope IZZA 109.50 MHz 10 nm / 19 km 300.13° 300.09° 2.50° 862 ft / 263 m (AMSL)

Popular Alternatives